メインページ
METAR-TAF:

METAR-TAF

空港 :

ベルリン・テーゲル空港

ベルリン, ドイツ

緯度: 52-34N, 経度: 013-19E, 海抜: 37m

現時点の気象観測

当レポートは41分前の05:50(UTC)に作成
西/北西の風 3kt、西から北西の間で変化する
気温 4°C
湿度 70%
気圧 1023 hPa
視程10km以上
1,500メートル以下は雲なし、積乱雲なし

METAR: EDDT 040550Z 29003KT 260V320 CAVOK 04/M01 Q1023 NOSIG

時間: 08:31 (06:31 UTC)

予報

当レポートは1時間31分前の05:00(UTC)に作成
予報は04日の 06時(UTC)から 05日の 06時(UTC)まで有効
西の風 5kt
視程10km以上
1,500メートル以下は雲なし、積乱雲なし
04日の 14時(UTC)から 04日の 16時(UTC)まで徐々に
東/南東の風 4kt

TAF: EDDT 040500Z 0406/0506 28005KT CAVOK BECMG 0414/0416 12004KT

4,000以上の空港の気象観測と天気予報(METAR報とTAF報)

利用可能な観測所は地図上に黄色い丸と赤い丸で示す。

丸の上にカーソルを重ねると観測所名を参照できる。

次にクリックすると気象観測と天気予報を参照できる。

マップの切り替え:黒色「×」印の緑ボタンをクリックして拡大、「-」印の緑ボタンをクリックして縮小、緑色の三角印をクリックして隣りの地図に切り替え


METAR-TAF: